Time;durP1;ratioP1;P1;durP2;ratioP2;P2;SDS_P1;SDS_P2;PMS_P1;PMS_P2;Temp;Humidity;BMP_temperature;BMP_pressure;BME280_temperature;BME280_humidity;BME280_pressure;Samples;Min_cycle;Max_cycle;Signal;HPM_P1;HPM_P2
2021/11/19 00:02:02;;;;;;;55.78;30.92;;;;;;;2.27;85.28;99731.06;1846819;77;20978;-67
2021/11/19 00:04:30;;;;;;;59.10;30.50;;;;;;;2.28;85.27;99730.86;1845281;77;20998;-68
2021/11/19 00:06:57;;;;;;;53.28;30.32;;;;;;;2.30;85.27;99729.31;1843826;77;20944;-67
2021/11/19 00:09:24;;;;;;;55.63;30.77;;;;;;;2.30;85.33;99730.11;1842465;78;21030;-68
2021/11/19 00:11:51;;;;;;;51.08;29.10;;;;;;;2.31;85.38;99730.42;1846649;77;20953;-68
2021/11/19 00:14:19;;;;;;;50.92;29.27;;;;;;;2.35;85.39;99716.86;1837079;78;21516;-68
2021/11/19 00:16:49;;;;;;;46.88;28.07;;;;;;;2.36;85.36;99715.83;1846406;77;20975;-68
2021/11/19 00:19:16;;;;;;;46.25;28.92;;;;;;;2.36;85.38;99713.14;1842126;77;21517;-68
2021/11/19 00:21:42;;;;;;;;;;;;;;;2.37;85.39;99714.77;1840549;77;21014;-69
2021/11/19 00:24:09;;;;;;;45.10;26.23;;;;;;;2.36;85.42;99711.80;1844709;77;20101;-68
2021/11/19 00:26:36;;;;;;;47.45;27.85;;;;;;;2.36;85.54;99715.00;1833523;78;20979;-68
2021/11/19 00:29:03;;;;;;;50.67;29.50;;;;;;;2.38;85.69;99718.27;1834846;77;21034;-67
2021/11/19 00:31:30;;;;;;;49.55;27.75;;;;;;;2.38;85.76;99704.84;1846228;77;20967;-68
2021/11/19 00:33:56;;;;;;;49.70;27.00;;;;;;;2.42;85.78;99706.88;1834585;78;21030;-68
2021/11/19 00:36:25;;;;;;;47.73;28.50;;;;;;;2.44;85.82;99703.44;1837784;77;20955;-69
2021/11/19 00:38:54;;;;;;;44.63;27.70;;;;;;;2.48;85.81;99704.65;1847622;77;21624;-68
2021/11/19 00:41:20;;;;;;;48.73;28.12;;;;;;;2.49;85.77;99699.58;1847748;77;20966;-68
2021/11/19 00:43:47;;;;;;;44.27;28.20;;;;;;;2.49;85.75;99698.23;1846043;77;20979;-68
2021/11/19 00:46:14;;;;;;;43.50;26.37;;;;;;;2.53;85.71;99693.77;1846950;77;21005;-68
2021/11/19 00:48:41;;;;;;;44.18;26.35;;;;;;;2.52;85.73;99687.56;1847347;77;20985;-68
2021/11/19 00:51:21;;;;;;;43.15;26.00;;;;;;;2.52;85.66;99688.91;1840977;77;20967;-68
2021/11/19 00:53:51;;;;;;;40.23;25.17;;;;;;;2.52;85.58;99684.88;1834117;77;20991;-68
2021/11/19 00:56:22;;;;;;;39.38;25.65;;;;;;;2.51;85.50;99684.59;1834255;77;20947;-68
2021/11/19 00:58:50;;;;;;;45.00;26.70;;;;;;;2.47;85.58;99676.67;1821479;77;21670;-68
2021/11/19 01:01:21;;;;;;;38.35;23.90;;;;;;;2.43;85.67;99676.30;1831037;77;21779;-68
2021/11/19 01:03:48;;;;;;;42.67;25.50;;;;;;;2.46;85.83;99671.81;1831484;77;21563;-68
2021/11/19 01:06:14;;;;;;;39.95;25.20;;;;;;;2.53;85.84;99670.92;1831704;77;20961;-68
2021/11/19 01:08:41;;;;;;;36.73;24.32;;;;;;;2.58;85.79;99671.09;1840332;77;21556;-68
2021/11/19 01:11:11;;;;;;;;;;;;;;;2.60;85.74;99668.48;1834779;77;21001;-68
2021/11/19 01:13:40;;;;;;;37.78;23.20;;;;;;;2.63;85.77;99665.34;1847158;77;20114;-68
2021/11/19 01:16:18;;;;;;;33.90;22.07;;;;;;;2.62;85.90;99651.63;1808276;77;21450;-68
2021/11/19 01:18:49;;;;;;;33.05;21.37;;;;;;;2.65;85.93;99648.48;1840381;77;21038;-68
2021/11/19 01:21:35;;;;;;;37.33;23.10;;;;;;;2.68;85.87;99645.87;1840663;77;21491;-69
2021/11/19 01:24:02;;;;;;;35.90;22.27;;;;;;;2.67;85.82;99639.67;1834861;77;21018;-68
2021/11/19 01:26:36;;;;;;;32.80;21.10;;;;;;;2.68;85.77;99639.98;1831076;77;21450;-68
2021/11/19 01:29:06;;;;;;;33.92;21.65;;;;;;;2.70;85.71;99631.67;1848558;77;21003;-68
2021/11/19 01:31:39;;;;;;;30.23;20.52;;;;;;;2.68;85.70;99634.59;1843528;77;21002;-68
2021/11/19 01:34:08;;;;;;;34.70;22.00;;;;;;;2.64;85.90;99636.09;1830565;77;21153;-67
2021/11/19 01:36:39;;;;;;;33.08;20.95;;;;;;;2.67;86.00;99640.19;1830011;77;20975;-68
2021/11/19 01:39:15;;;;;;;34.90;21.00;;;;;;;2.70;86.02;99634.36;1839741;77;21053;-68
2021/11/19 01:42:07;;;;;;;;;;;;;;;2.75;85.98;99629.15;1848657;77;21374;-68
2021/11/19 01:44:59;;;;;;;30.92;19.15;;;;;;;2.77;85.98;99633.77;1834650;77;20107;-68
2021/11/19 01:47:26;;;;;;;28.55;18.90;;;;;;;2.75;86.09;99623.77;1809683;77;21461;-68
2021/11/19 01:49:53;;;;;;;30.50;18.62;;;;;;;2.77;86.17;99617.12;1809426;78;21046;-67
2021/11/19 01:52:27;;;;;;;29.20;19.00;;;;;;;2.82;86.14;99614.59;1841654;77;20983;-68
2021/11/19 01:54:59;;;;;;;29.05;18.02;;;;;;;2.85;86.06;99614.14;1829808;77;21062;-68
2021/11/19 01:57:39;;;;;;;27.15;17.80;;;;;;;2.85;85.99;99611.45;1838181;77;21021;-68
2021/11/19 02:00:30;;;;;;;29.65;17.95;;;;;;;2.87;85.95;99612.58;1840993;77;21560;-68
2021/11/19 02:02:57;;;;;;;28.12;17.87;;;;;;;2.87;85.92;99611.23;1847569;77;21003;-68
2021/11/19 02:05:39;;;;;;;27.73;16.52;;;;;;;2.86;85.91;99599.66;1842681;77;21038;-68
2021/11/19 02:08:12;;;;;;;24.25;16.07;;;;;;;2.88;85.98;99588.66;1831637;77;21014;-68
2021/11/19 02:11:00;;;;;;;27.30;16.60;;;;;;;2.90;86.01;99597.34;1829242;78;21537;-68
2021/11/19 02:13:50;;;;;;;28.65;16.82;;;;;;;2.92;86.04;99590.68;1813981;77;21508;-68
2021/11/19 02:16:19;;;;;;;;;;;;;;;2.94;86.01;99590.47;1823368;77;21005;-68
2021/11/19 02:19:00;;;;;;;27.58;16.10;;;;;;;2.94;85.98;99599.33;1829978;77;20115;-68
2021/11/19 02:21:40;;;;;;;22.13;15.53;;;;;;;2.87;85.98;99597.25;1827828;77;21563;-68
2021/11/19 02:24:29;;;;;;;23.90;15.68;;;;;;;2.84;85.85;99600.39;1821045;78;21002;-68
2021/11/19 02:27:08;;;;;;;24.72;15.90;;;;;;;2.81;85.78;99598.67;1831242;77;20970;-68
2021/11/19 02:29:40;;;;;;;28.47;16.32;;;;;;;2.81;85.73;99601.36;1830632;77;21018;-68
2021/11/19 02:32:10;;;;;;;25.90;15.55;;;;;;;2.84;85.75;99598.22;1849654;77;21048;-69
2021/11/19 02:34:39;;;;;;;23.07;16.25;;;;;;;2.87;85.77;99593.77;1847954;77;21029;-68
2021/11/19 02:37:10;;;;;;;21.85;15.40;;;;;;;2.90;85.82;99594.13;1820462;77;20950;-68
2021/11/19 02:39:42;;;;;;;26.65;17.82;;;;;;;2.94;85.88;99600.67;1854745;77;21018;-68
2021/11/19 02:42:13;;;;;;;24.47;17.00;;;;;;;2.95;85.97;99598.29;1845678;77;20966;-68
2021/11/19 02:44:40;;;;;;;28.25;16.57;;;;;;;2.95;86.11;99592.91;1829987;78;21093;-68
2021/11/19 02:47:12;;;;;;;23.85;16.57;;;;;;;2.99;86.12;99582.01;1844203;77;20989;-68
2021/11/19 02:49:40;;;;;;;27.42;17.35;;;;;;;3.03;86.09;99578.34;1797670;80;21600;-68
2021/11/19 02:52:10;;;;;;;24.70;16.48;;;;;;;3.08;86.07;99588.43;1827881;77;21410;-68
2021/11/19 02:54:37;;;;;;;29.75;17.60;;;;;;;3.09;86.04;99594.91;1830251;77;21081;-69
2021/11/19 02:57:04;;;;;;;;;;;;;;;3.13;85.98;99597.45;1832839;77;20944;-68
2021/11/19 03:07:13;;;;;;;26.60;17.17;;;;;;;3.14;85.99;99567.34;1817809;79;22571;-67
2021/11/19 03:09:46;;;;;;;27.98;18.35;;;;;;;3.07;85.96;99577.36;1764887;80;21129;-67
2021/11/19 03:12:17;;;;;;;25.20;17.27;;;;;;;3.04;85.87;99571.92;1761422;81;20999;-67
2021/11/19 03:21:57;;;;;;;28.47;18.45;;;;;;;2.94;85.80;99556.30;1809375;79;22854;-67
2021/11/19 03:24:23;;;;;;;25.80;17.75;;;;;;;2.89;85.86;99554.02;1758789;80;21102;-67
2021/11/19 03:26:51;;;;;;;28.23;18.07;;;;;;;2.90;85.92;99548.95;1738219;82;21074;-67
2021/11/19 03:29:20;;;;;;;28.07;18.75;;;;;;;2.93;85.91;99548.48;1742360;82;21015;-67
2021/11/19 03:31:47;;;;;;;26.35;17.65;;;;;;;2.94;85.89;99534.80;1752323;82;21006;-67
2021/11/19 03:34:13;;;;;;;;;;;;;;;2.99;85.90;99540.33;1753562;82;21023;-67
2021/11/19 03:36:46;;;;;;;26.05;17.05;;;;;;;3.05;85.86;99534.55;1741968;82;20137;-67
2021/11/19 03:39:14;;;;;;;24.02;17.32;;;;;;;3.05;85.89;99532.41;1725226;82;21518;-66
2021/11/19 03:41:43;;;;;;;28.65;17.37;;;;;;;3.10;85.86;99534.70;1724502;82;21066;-67
2021/11/19 03:44:19;;;;;;;24.75;17.32;;;;;;;3.13;85.75;99528.86;1750548;82;21134;-67
2021/11/19 03:46:53;;;;;;;26.95;16.90;;;;;;;3.15;85.63;99522.74;1713523;83;21043;-66
2021/11/19 03:49:19;;;;;;;25.88;17.57;;;;;;;3.16;85.50;99514.95;1717588;82;21437;-66
2021/11/19 03:51:56;;;;;;;26.65;17.12;;;;;;;3.18;85.43;99516.08;1741137;81;21030;-66
2021/11/19 03:54:25;;;;;;;27.48;17.65;;;;;;;3.16;85.35;99512.26;1725344;82;21077;-66
2021/11/19 03:56:54;;;;;;;30.45;19.35;;;;;;;3.11;85.41;99514.83;1674715;84;21624;-66
2021/11/19 03:59:21;;;;;;;25.30;18.00;;;;;;;3.07;85.43;99514.98;1682987;84;21115;-66
2021/11/19 04:01:50;;;;;;;29.05;18.07;;;;;;;3.08;85.42;99509.91;1688236;84;21050;-66
2021/11/19 04:04:21;;;;;;;28.35;17.27;;;;;;;3.11;85.32;99500.04;1688349;84;21602;-66
2021/11/19 04:06:48;;;;;;;29.70;17.35;;;;;;;3.16;85.27;99496.12;1690365;84;21599;-66
2021/11/19 04:09:14;;;;;;;;;;;;;;;3.20;85.15;99489.23;1680419;84;21122;-66
2021/11/19 04:11:40;;;;;;;27.05;17.48;;;;;;;3.21;85.09;99492.75;1693064;84;20457;-66
2021/11/19 04:14:08;;;;;;;28.40;17.42;;;;;;;3.12;85.30;99494.14;1683163;84;21506;-66
2021/11/19 04:16:41;;;;;;;28.70;17.65;;;;;;;3.10;85.38;99487.63;1671555;84;21532;-66
2021/11/19 04:19:10;;;;;;;25.92;16.32;;;;;;;3.16;85.28;99484.53;1663298;85;21058;-66
2021/11/19 04:21:37;;;;;;;28.07;17.23;;;;;;;3.19;85.12;99481.41;1658569;85;21046;-66
2021/11/19 04:24:05;;;;;;;25.88;17.25;;;;;;;3.19;84.97;99468.76;1683801;85;21648;-66
2021/11/19 04:26:34;;;;;;;25.08;16.57;;;;;;;3.24;84.87;99464.04;1699258;84;21016;-66
2021/11/19 04:29:01;;;;;;;25.70;17.50;;;;;;;3.23;84.75;99466.42;1706391;84;21011;-67
2021/11/19 04:31:30;;;;;;;27.77;16.85;;;;;;;3.15;84.64;99466.27;1695604;84;21047;-67
2021/11/19 04:33:57;;;;;;;24.02;16.07;;;;;;;3.11;84.67;99456.19;1711788;84;21093;-68
2021/11/19 04:36:25;;;;;;;24.90;16.35;;;;;;;3.14;84.56;99460.58;1697151;84;21549;-67
2021/11/19 04:38:51;;;;;;;24.02;16.23;;;;;;;3.17;84.42;99458.77;1686906;84;21082;-67
2021/11/19 04:41:20;;;;;;;23.22;15.85;;;;;;;3.18;84.27;99457.73;1646533;84;21574;-67
2021/11/19 04:43:47;;;;;;;25.25;16.48;;;;;;;3.10;84.23;99455.36;1690176;84;21043;-67
2021/11/19 04:46:14;;;;;;;25.25;16.37;;;;;;;3.03;84.36;99458.67;1671004;85;21059;-67
2021/11/19 04:48:41;;;;;;;25.20;16.12;;;;;;;3.01;84.42;99448.69;1676921;84;21550;-67
2021/11/19 04:51:13;;;;;;;23.25;15.03;;;;;;;3.02;84.29;99448.95;1685285;84;21033;-67
2021/11/19 04:53:40;;;;;;;22.55;14.70;;;;;;;3.03;84.21;99446.57;1698207;84;21047;-67
2021/11/19 04:56:06;;;;;;;;;;;;;;;3.03;84.07;99434.98;1699294;84;21524;-67
2021/11/19 04:58:33;;;;;;;26.05;15.95;;;;;;;3.00;84.05;99445.17;1680610;84;20133;-67
2021/11/19 05:01:05;;;;;;;23.95;15.30;;;;;;;2.89;84.33;99452.67;1671389;84;21090;-67
2021/11/19 05:03:33;;;;;;;24.57;15.58;;;;;;;2.88;84.48;99448.33;1666916;84;21612;-67
2021/11/19 05:06:00;;;;;;;24.25;14.87;;;;;;;2.94;84.45;99443.92;1677980;84;21082;-67
2021/11/19 05:08:27;;;;;;;21.20;14.75;;;;;;;2.98;84.36;99446.42;1660693;85;21118;-67
2021/11/19 05:10:57;;;;;;;22.27;13.93;;;;;;;2.98;84.31;99439.19;1690513;84;21046;-67
2021/11/19 05:13:26;;;;;;;20.92;15.25;;;;;;;2.96;84.39;99445.84;1681729;84;21082;-67
2021/11/19 05:15:56;;;;;;;23.80;15.83;;;;;;;2.95;84.47;99435.61;1670670;86;21605;-67
2021/11/19 05:18:23;;;;;;;22.73;14.90;;;;;;;2.99;84.35;99434.11;1673005;84;21118;-66
2021/11/19 05:20:50;;;;;;;23.15;13.70;;;;;;;3.01;84.21;99436.58;1643839;86;21078;-67
2021/11/19 05:23:17;;;;;;;;;;;;;;;3.00;84.12;99439.79;1682582;84;21693;-67
2021/11/19 05:25:44;;;;;;;21.05;14.13;;;;;;;3.00;84.09;99435.76;1699017;84;20158;-68
2021/11/19 05:28:15;;;;;;;23.15;14.23;;;;;;;2.97;84.16;99436.74;1692824;84;21590;-68
2021/11/19 05:30:42;;;;;;;23.83;14.95;;;;;;;2.96;84.22;99436.44;1675109;84;21619;-67
2021/11/19 05:33:11;;;;;;;25.50;15.58;;;;;;;2.94;84.35;99439.89;1683019;84;21051;-67
2021/11/19 05:35:37;;;;;;;23.00;15.25;;;;;;;2.92;84.36;99437.42;1683615;84;21078;-67
2021/11/19 05:38:05;;;;;;;22.35;14.98;;;;;;;2.94;84.26;99424.55;1673225;85;21018;-67
2021/11/19 05:40:33;;;;;;;23.73;14.50;;;;;;;2.96;84.16;99429.20;1680064;85;21489;-67
2021/11/19 05:42:59;;;;;;;22.80;14.80;;;;;;;2.99;84.12;99422.53;1668347;85;21069;-67
2021/11/19 05:45:27;;;;;;;21.17;13.68;;;;;;;3.02;84.06;99427.44;1665335;85;21044;-67
2021/11/19 05:47:55;;;;;;;21.42;14.20;;;;;;;3.03;84.01;99416.98;1718206;82;21007;-67
2021/11/19 05:50:23;;;;;;;22.95;14.68;;;;;;;3.02;83.88;99415.34;1738285;82;21487;-67
2021/11/19 05:52:52;;;;;;;20.68;14.38;;;;;;;2.95;83.99;99413.28;1746679;81;21003;-67
2021/11/19 05:55:20;;;;;;;22.73;15.25;;;;;;;2.90;84.09;99408.61;1697777;82;20976;-67
2021/11/19 05:57:48;;;;;;;20.88;14.83;;;;;;;2.92;84.06;99409.71;1731851;82;20972;-67
2021/11/19 06:00:22;;;;;;;23.00;14.63;;;;;;;2.93;84.01;99407.33;1737420;82;21007;-67
2021/11/19 06:02:53;;;;;;;19.73;14.63;;;;;;;2.96;83.98;99410.89;1747328;82;20988;-67
2021/11/19 06:05:32;;;;;;;23.20;16.10;;;;;;;2.94;84.05;99403.59;1711590;84;21003;-67
2021/11/19 06:08:12;;;;;;;19.75;14.68;;;;;;;2.90;84.25;99404.58;1640044;84;21550;-66
2021/11/19 06:10:50;;;;;;;;;;;;;;;2.92;84.36;99409.71;1673472;86;21121;-66
2021/11/19 06:13:14;;;;;;;21.68;14.73;;;;;;;2.94;84.31;99401.70;1670547;86;20144;-66
2021/11/19 06:15:45;;;;;;;21.37;14.65;;;;;;;2.93;84.32;99396.05;1671803;84;21082;-67
2021/11/19 06:18:17;;;;;;;21.35;14.15;;;;;;;2.94;84.35;99385.56;1678140;84;21090;-66
2021/11/19 06:20:48;;;;;;;22.58;14.83;;;;;;;2.94;84.45;99379.39;1696995;83;21538;-67
2021/11/19 06:23:20;;;;;;;20.97;14.50;;;;;;;2.91;84.65;99371.77;1671267;86;21601;-66
2021/11/19 06:25:46;;;;;;;22.20;15.25;;;;;;;2.93;84.81;99369.16;1671071;86;21083;-67
2021/11/19 06:28:19;;;;;;;20.70;14.40;;;;;;;2.97;84.77;99370.34;1642169;86;21562;-66
2021/11/19 06:30:47;;;;;;;21.20;14.30;;;;;;;3.00;84.72;99371.22;1667922;86;21035;-67
2021/11/19 06:33:14;;;;;;;19.23;13.58;;;;;;;3.01;84.73;99354.02;1671047;86;21102;-66
2021/11/19 06:35:41;;;;;;;19.85;14.58;;;;;;;3.05;84.74;99348.99;1671031;86;21007;-66
2021/11/19 06:38:07;;;;;;;19.82;13.62;;;;;;;3.09;84.77;99351.52;1671190;86;21063;-67
2021/11/19 06:40:36;;;;;;;24.27;15.20;;;;;;;3.11;84.80;99339.19;1670685;85;20995;-66
2021/11/19 06:43:15;;;;;;;23.30;15.20;;;;;;;3.14;84.84;99346.79;1670955;86;21629;-65
2021/11/19 06:46:01;;;;;;;41.40;20.88;;;;;;;3.16;84.84;99337.42;1670971;86;21094;-66
2021/11/19 06:48:32;;;;;;;49.95;23.70;;;;;;;3.19;84.84;99332.92;1669378;86;21055;-65
2021/11/19 06:51:17;;;;;;;57.50;26.05;;;;;;;3.22;84.83;99327.63;1671041;86;21043;-66
2021/11/19 06:53:47;;;;;;;40.55;20.95;;;;;;;3.24;84.82;99323.64;1669079;86;21070;-66
2021/11/19 06:56:21;;;;;;;28.10;17.25;;;;;;;3.26;84.83;99312.66;1661356;86;21090;-66
2021/11/19 06:59:06;;;;;;;36.17;20.97;;;;;;;3.27;84.79;99311.58;1671120;86;21075;-66
2021/11/19 07:01:33;;;;;;;32.48;20.20;;;;;;;3.25;84.76;99302.42;1670995;86;21099;-67
2021/11/19 07:04:00;;;;;;;44.25;23.62;;;;;;;3.25;84.79;99303.77;1670947;86;21094;-66
2021/11/19 07:06:26;;;;;;;30.57;17.40;;;;;;;3.28;84.82;99308.67;1671242;86;21043;-66
2021/11/19 07:08:53;;;;;;;38.23;21.20;;;;;;;3.30;84.85;99304.38;1642240;86;21067;-67
2021/11/19 07:11:22;;;;;;;28.45;17.50;;;;;;;3.33;84.85;99290.48;1670917;86;21027;-66
2021/11/19 07:13:50;;;;;;;25.65;16.93;;;;;;;3.36;84.85;99296.73;1671012;85;21550;-67
2021/11/19 07:16:21;;;;;;;25.08;16.00;;;;;;;3.40;84.91;99290.63;1671160;86;21656;-66
2021/11/19 07:18:47;;;;;;;23.22;16.73;;;;;;;3.43;84.89;99294.22;1669921;86;21057;-66
2021/11/19 07:21:14;;;;;;;24.27;15.75;;;;;;;3.48;84.89;99285.41;1671044;84;21047;-66
2021/11/19 07:23:40;;;;;;;25.95;17.27;;;;;;;3.48;84.95;99280.03;1671125;86;21067;-66
2021/11/19 07:26:07;;;;;;;23.95;17.00;;;;;;;3.45;85.12;99270.56;1671295;86;21011;-67
2021/11/19 07:28:34;;;;;;;25.37;16.60;;;;;;;3.46;85.23;99270.86;1671369;86;21066;-66
2021/11/19 07:31:09;;;;;;;26.12;17.15;;;;;;;3.53;85.20;99260.48;1643223;86;21602;-66
2021/11/19 07:33:37;;;;;;;24.98;16.17;;;;;;;3.58;85.16;99255.22;1668424;86;21118;-66
2021/11/19 07:36:13;;;;;;;22.10;15.65;;;;;;;3.64;85.12;99255.61;1643001;86;21051;-66
2021/11/19 07:38:41;;;;;;;22.42;15.38;;;;;;;3.69;85.09;99264.59;1666634;86;21660;-66
2021/11/19 07:41:14;;;;;;;23.83;17.27;;;;;;;3.73;85.08;99261.72;1669485;86;21035;-66
2021/11/19 07:43:43;;;;;;;24.80;17.87;;;;;;;3.73;85.08;99259.55;1669278;86;21114;-66
2021/11/19 07:46:18;;;;;;;25.85;18.23;;;;;;;3.70;85.23;99257.34;1670515;86;21047;-66
2021/11/19 07:48:47;;;;;;;26.35;18.27;;;;;;;3.73;85.35;99252.81;1670986;85;21668;-66
2021/11/19 07:51:18;;;;;;;25.43;16.52;;;;;;;3.79;85.28;99257.27;1644572;85;21038;-66
2021/11/19 07:53:45;;;;;;;23.60;16.50;;;;;;;3.84;85.21;99254.66;1671010;86;21605;-65
2021/11/19 07:56:14;;;;;;;23.35;16.48;;;;;;;3.89;85.15;99242.12;1641676;86;21035;-66
2021/11/19 07:58:41;;;;;;;23.70;16.00;;;;;;;3.93;85.12;99251.33;1671024;86;22010;-66
2021/11/19 08:01:07;;;;;;;24.02;16.87;;;;;;;3.91;85.18;99244.03;1670897;86;21478;-66
2021/11/19 08:03:34;;;;;;;23.85;16.80;;;;;;;3.90;85.30;99230.80;1642080;86;21123;-66
2021/11/19 08:06:02;;;;;;;23.75;16.17;;;;;;;3.90;85.33;99232.97;1671005;86;21023;-66
2021/11/19 08:08:31;;;;;;;23.92;16.05;;;;;;;3.93;85.26;99235.17;1671079;86;21102;-66
2021/11/19 08:11:06;;;;;;;27.77;20.43;;;;;;;3.95;85.24;99237.11;1670395;86;21514;-67
2021/11/19 08:13:34;;;;;;;24.92;20.62;;;;;;;4.00;85.27;99228.32;1671150;86;21601;-66
2021/11/19 08:16:01;;;;;;;24.15;18.17;;;;;;;4.03;85.30;99227.83;1670995;86;21019;-67
2021/11/19 08:18:33;;;;;;;22.50;17.02;;;;;;;4.03;85.34;99228.36;1669960;86;21106;-66
2021/11/19 08:21:01;;;;;;;22.40;17.57;;;;;;;3.95;85.48;99222.30;1671027;86;21055;-66
2021/11/19 08:23:35;;;;;;;21.25;16.50;;;;;;;3.94;85.61;99226.05;1671051;86;21593;-66
2021/11/19 08:26:16;;;;;;;21.75;16.95;;;;;;;3.94;85.64;99209.89;1671097;86;21036;-67
2021/11/19 08:28:42;;;;;;;22.48;16.45;;;;;;;4.00;85.67;99210.81;1670976;86;21625;-66
2021/11/19 08:31:11;;;;;;;21.77;15.90;;;;;;;4.04;85.71;99203.06;1670992;86;21078;-67
2021/11/19 08:33:38;;;;;;;19.92;15.60;;;;;;;4.08;85.78;99195.59;1671057;86;21123;-66
2021/11/19 08:36:05;;;;;;;21.42;15.60;;;;;;;4.14;85.81;99185.73;1671377;86;21003;-66
2021/11/19 08:38:31;;;;;;;;;;;;;;;4.16;85.79;99178.21;1673606;86;21644;-66
2021/11/19 08:40:57;;;;;;;20.37;15.40;;;;;;;4.20;85.85;99176.14;1671433;86;20148;-66
2021/11/19 08:43:27;;;;;;;20.43;14.80;;;;;;;4.20;85.99;99176.14;1671055;86;21086;-66
2021/11/19 08:45:56;;;;;;;21.00;15.20;;;;;;;4.26;86.04;99170.30;1671070;86;21019;-66
2021/11/19 08:48:24;;;;;;;22.50;15.00;;;;;;;4.28;86.04;99167.67;1670855;86;21065;-67
2021/11/19 08:50:50;;;;;;;21.85;16.37;;;;;;;4.30;86.00;99166.05;1671057;86;21593;-66
2021/11/19 08:53:17;;;;;;;22.30;16.40;;;;;;;4.34;85.98;99158.59;1670953;86;21083;-66
2021/11/19 08:55:46;;;;;;;;;;;;;;;4.37;85.95;99162.14;1673210;86;21047;-66
2021/11/19 08:58:16;;;;;;;21.23;14.05;;;;;;;4.37;85.90;99155.41;1671021;86;20442;-67
2021/11/19 09:00:43;;;;;;;19.40;14.98;;;;;;;4.34;85.98;99151.86;1670994;86;21066;-67
2021/11/19 09:03:10;;;;;;;;;;;;;;;4.35;86.03;99148.11;1673479;86;21071;-67
2021/11/19 09:05:39;;;;;;;23.18;14.98;;;;;;;4.40;86.03;99144.66;1671204;86;20165;-66
2021/11/19 09:08:06;;;;;;;19.30;13.48;;;;;;;4.40;86.13;99138.73;1671045;86;21094;-66
2021/11/19 09:10:33;;;;;;;19.95;13.50;;;;;;;4.44;86.19;99128.28;1671171;86;21023;-66
2021/11/19 09:12:59;;;;;;;22.67;15.72;;;;;;;4.47;86.20;99125.09;1642539;86;21074;-66
2021/11/19 09:15:26;;;;;;;19.67;13.60;;;;;;;4.46;86.27;99124.27;1683480;85;21010;-66
2021/11/19 09:17:58;;;;;;;;;;;;;;;4.47;86.26;99127.78;1673461;86;21508;-66
2021/11/19 09:20:48;;;;;;;19.30;12.55;;;;;;;4.54;86.23;99124.39;1667756;86;20141;-66
2021/11/19 09:23:20;;;;;;;19.32;12.95;;;;;;;4.55;86.29;99117.94;1670760;84;21561;-66
2021/11/19 09:25:48;;;;;;;19.45;12.13;;;;;;;4.58;86.29;99110.70;1671153;86;21015;-66
2021/11/19 09:28:16;;;;;;;17.05;12.50;;;;;;;4.65;86.34;99110.52;1671034;86;21090;-66
2021/11/19 09:30:45;;;;;;;16.70;11.57;;;;;;;4.71;86.35;99104.16;1671177;86;21012;-66
2021/11/19 09:33:15;;;;;;;16.00;12.23;;;;;;;4.73;86.30;99105.53;1670899;86;21043;-67
2021/11/19 09:35:41;;;;;;;17.00;11.40;;;;;;;4.76;86.27;99100.16;1671088;86;21022;-66
2021/11/19 09:38:09;;;;;;;21.40;12.73;;;;;;;4.79;86.28;99099.13;1671223;86;21606;-66
2021/11/19 09:40:40;;;;;;;17.92;11.97;;;;;;;4.83;86.23;99094.05;1670993;86;21043;-66
2021/11/19 09:43:41;;;;;;;17.60;12.53;;;;;;;4.83;86.11;99078.69;1670633;86;21121;-67
2021/11/19 09:46:21;;;;;;;19.23;12.60;;;;;;;4.82;86.08;99078.93;1671039;85;20995;-66
2021/11/19 09:49:08;;;;;;;17.17;11.25;;;;;;;4.82;86.20;99074.36;1694399;84;21070;-67
2021/11/19 09:52:18;;;;;;;17.73;11.75;;;;;;;4.83;86.20;99064.39;1699293;84;21000;-66
2021/11/19 09:55:14;;;;;;;16.07;11.53;;;;;;;4.82;86.31;99062.22;1653549;86;21059;-65
2021/11/19 09:58:29;;;;;;;17.73;11.48;;;;;;;4.86;86.42;99050.40;1709631;84;21464;-66
2021/11/19 10:01:42;;;;;;;15.20;11.25;;;;;;;4.91;86.51;99048.59;1709835;83;21083;-66
2021/11/19 10:04:50;;;;;;;17.12;11.35;;;;;;;4.96;86.43;99048.64;1709295;84;21044;-68
2021/11/19 10:07:49;;;;;;;14.53;10.48;;;;;;;4.98;86.49;99032.22;1727417;82;20995;-69
2021/11/19 10:10:51;;;;;;;16.75;10.93;;;;;;;5.01;86.58;99027.13;1613757;89;21493;-67
2021/11/19 10:17:01;;;;;;;15.03;10.32;;;;;;;5.16;86.50;99016.23;1819013;79;22784;-67
2021/11/19 10:19:49;;;;;;;14.00;10.60;;;;;;;5.14;86.57;99013.77;1792414;79;21043;-67
2021/11/19 10:22:37;;;;;;;15.68;10.28;;;;;;;5.16;86.50;98998.16;1793248;80;21499;-67
2021/11/19 10:25:32;;;;;;;13.95;10.50;;;;;;;5.19;86.34;99002.22;1789880;79;21011;-67
2021/11/19 10:28:02;;;;;;;15.00;9.98;;;;;;;5.21;86.26;98998.75;1773066;80;20983;-67
2021/11/19 10:30:44;;;;;;;16.42;10.15;;;;;;;5.25;86.22;98994.45;1793214;80;21073;-67
2021/11/19 10:33:35;;;;;;;16.95;10.05;;;;;;;5.27;86.19;98985.58;1792290;80;21033;-67
2021/11/19 10:36:19;;;;;;;12.78;9.58;;;;;;;5.32;86.21;98980.22;1793102;80;21003;-67
2021/11/19 10:39:19;;;;;;;12.20;9.20;;;;;;;5.32;86.12;98976.98;1769465;80;21018;-67
2021/11/19 10:42:29;;;;;;;14.43;9.68;;;;;;;5.34;86.09;98968.65;1793243;80;21832;-67
2021/11/19 10:45:22;;;;;;;11.12;8.30;;;;;;;5.36;86.11;98972.70;1793256;80;21584;-67
2021/11/19 10:48:12;;;;;;;13.70;8.58;;;;;;;5.38;86.16;98967.06;1793306;80;21580;-67
2021/11/19 10:51:17;;;;;;;13.18;7.70;;;;;;;5.40;86.15;98964.38;1793063;80;21014;-67
2021/11/19 10:54:10;;;;;;;10.18;7.50;;;;;;;5.41;86.09;98957.92;1791903;80;20998;-67
2021/11/19 10:57:09;;;;;;;11.63;7.10;;;;;;;5.41;86.16;98955.22;1793089;80;21528;-65
2021/11/19 10:59:43;;;;;;;11.10;7.08;;;;;;;5.44;86.19;98949.84;1792941;80;21588;-64
2021/11/19 11:02:18;;;;;;;13.03;6.97;;;;;;;5.47;86.17;98944.73;1793374;80;21461;-64
2021/11/19 11:04:53;;;;;;;9.55;6.92;;;;;;;5.50;86.16;98946.09;1792662;80;21707;-65
2021/11/19 11:07:33;;;;;;;9.40;7.08;;;;;;;5.51;86.13;98947.20;1793535;80;21481;-65
2021/11/19 11:10:15;;;;;;;10.25;6.50;;;;;;;5.53;86.15;98938.05;1793290;80;21046;-64
2021/11/19 11:12:51;;;;;;;9.73;6.40;;;;;;;5.56;86.16;98938.88;1793306;80;21014;-64
2021/11/19 11:15:31;;;;;;;9.83;5.90;;;;;;;5.58;86.20;98934.02;1789455;80;21095;-65
2021/11/19 11:18:15;;;;;;;7.05;5.37;;;;;;;5.63;86.21;98934.06;1782291;80;20951;-65
2021/11/19 11:20:55;;;;;;;7.90;5.35;;;;;;;5.64;86.20;98934.31;1782210;80;21018;-66
2021/11/19 11:23:39;;;;;;;8.40;5.40;;;;;;;5.66;86.17;98928.14;1782250;80;21088;-65
2021/11/19 11:26:15;;;;;;;9.23;5.30;;;;;;;5.66;86.19;98929.49;1781927;80;21051;-65
2021/11/19 11:29:04;;;;;;;8.28;4.72;;;;;;;5.66;86.22;98933.01;1781814;80;20995;-65
2021/11/19 11:32:03;;;;;;;7.80;4.87;;;;;;;5.67;86.25;98925.73;1771579;80;21070;-65
2021/11/19 11:35:00;;;;;;;6.67;4.83;;;;;;;5.69;86.29;98931.67;1781344;80;21058;-66
2021/11/19 11:37:48;;;;;;;5.97;4.17;;;;;;;5.69;86.33;98923.03;1781855;80;20982;-65
2021/11/19 11:40:41;;;;;;;7.80;4.33;;;;;;;5.71;86.42;98930.33;1780736;80;20999;-65
2021/11/19 11:43:34;;;;;;;6.75;4.20;;;;;;;5.73;86.42;98931.43;1781722;80;21058;-65
2021/11/19 11:46:24;;;;;;;6.37;4.20;;;;;;;5.75;86.45;98918.47;1781318;80;21081;-65
2021/11/19 11:49:04;;;;;;;5.30;3.80;;;;;;;5.77;86.50;98923.09;1781586;80;21078;-65
2021/11/19 11:51:51;;;;;;;5.95;4.03;;;;;;;5.76;86.54;98916.88;1771518;80;21443;-65
2021/11/19 11:54:35;;;;;;;4.90;3.62;;;;;;;5.78;86.57;98918.77;1781893;80;21023;-65
2021/11/19 11:57:30;;;;;;;6.85;4.00;;;;;;;5.79;86.57;98919.05;1781527;80;21030;-65
2021/11/19 12:00:07;;;;;;;8.45;6.00;;;;;;;5.79;86.63;98916.34;1781670;80;21018;-65
2021/11/19 12:02:49;;;;;;;4.80;3.42;;;;;;;5.82;86.75;98921.75;1781726;80;21502;-65
2021/11/19 12:05:32;;;;;;;4.90;3.08;;;;;;;5.85;86.80;98923.40;1782193;80;21549;-65
2021/11/19 12:08:19;;;;;;;5.37;3.33;;;;;;;5.86;86.79;98923.72;1781779;80;20927;-65
2021/11/19 12:11:41;;;;;;;4.95;3.62;;;;;;;5.88;86.85;98914.02;1780730;80;21011;-65
2021/11/19 12:14:28;;;;;;;8.48;4.60;;;;;;;5.91;86.83;98912.95;1781641;80;21042;-65
2021/11/19 12:17:15;;;;;;;4.90;3.45;;;;;;;5.90;86.89;98911.31;1770516;80;21015;-65
2021/11/19 12:27:51;;;;;;;5.58;3.12;;;;;;;5.96;87.07;98905.39;1801159;79;22948;-66
2021/11/19 12:30:43;;;;;;;5.12;3.20;;;;;;;5.88;87.11;98912.10;1731248;83;20984;-66